Time;durP1;ratioP1;P1;durP2;ratioP2;P2;SDS_P1;SDS_P2;PMS_P1;PMS_P2;Temp;Humidity;BMP_temperature;BMP_pressure;BME280_temperature;BME280_humidity;BME280_pressure;Samples;Min_cycle;Max_cycle;Signal;HPM_P1;HPM_P2
2022/08/28 00:01:24;;;;;;;;;;;;;;;15.92;95.45;101870.38;5034569;28;20260;-43
2022/08/28 00:03:50;;;;;;;;;;;;;;;15.90;93.48;101869.66;5036322;28;20299;-43
2022/08/28 00:06:15;;;;;;;;;;;;;;;15.91;95.14;101874.06;5034985;28;20013;-44
2022/08/28 00:08:40;;;;;;;;;;;;;;;15.83;97.53;101876.75;5037988;28;19973;-47
2022/08/28 00:11:05;;;;;;;;;;;;;;;15.78;96.20;101876.44;5035442;28;19917;-45
2022/08/28 00:13:31;;;;;;;;;;;;;;;15.74;98.49;101886.69;5020621;28;19935;-44
2022/08/28 00:15:59;;;;;;;;;;;;;;;15.72;95.58;101882.47;5019392;28;20407;-45
2022/08/28 00:18:25;;;;;;;;;;;;;;;15.71;97.11;101880.78;5018311;28;19932;-46
2022/08/28 00:20:51;;;;;;;;;;;;;;;15.66;96.72;101868.69;5021076;28;20436;-46
2022/08/28 00:23:16;;;;;;;;;;;;;;;15.64;96.64;101877.94;5020462;28;20267;-43
2022/08/28 00:25:41;;;;;;;;;;;;;;;15.63;97.83;101878.94;5018270;28;19905;-48
2022/08/28 00:28:08;;;;;;;;;;;;;;;15.60;99.06;101877.44;5019352;28;19909;-44
2022/08/28 00:30:34;;;;;;;;;;;;;;;15.56;99.77;101880.63;5019088;28;20008;-47
2022/08/28 00:33:01;;;;;;;;;;;;;;;15.53;96.73;101879.13;5019709;28;19912;-45
2022/08/28 00:35:27;;;;;;;;;;;;;;;15.50;99.45;101874.06;5018742;28;20351;-44
2022/08/28 00:37:53;;;;;;;;;;;;;;;15.43;99.06;101881.16;5018862;28;19917;-44
2022/08/28 00:40:20;;;;;;;;;;;;;;;15.43;98.80;101881.16;5018325;28;20430;-43
2022/08/28 00:42:46;;;;;;;;;;;;;;;15.37;100.00;101882.63;5019685;28;19975;-44
2022/08/28 00:45:12;;;;;;;;;;;;;;;15.34;98.92;101884.81;5050128;28;19909;-46
2022/08/28 00:47:38;;;;;;;;;;;;;;;15.32;97.84;101879.59;5023882;28;19912;-43
2022/08/28 00:50:05;;;;;;;;;;;;;;;15.32;99.86;101882.28;5038484;28;19919;-45
2022/08/28 00:52:31;;;;;;;;;;;;;;;15.29;98.63;101886.19;5038639;28;19916;-47
2022/08/28 00:54:58;;;;;;;;;;;;;;;15.24;99.57;101887.66;5038245;28;20019;-45
2022/08/28 00:57:26;;;;;;;;;;;;;;;15.18;100.00;101882.97;5037223;28;19917;-44
2022/08/28 00:59:52;;;;;;;;;;;;;;;15.11;100.00;101883.63;5038222;28;19916;-46
2022/08/28 01:02:17;;;;;;;;;;;;;;;15.07;100.00;101886.78;5038341;28;20406;-47
2022/08/28 01:04:42;;;;;;;;;;;;;;;15.04;100.00;101887.97;5037487;28;20020;-43
2022/08/28 01:07:09;;;;;;;;;;;;;;;15.03;100.00;101893.53;5036727;28;20387;-42
2022/08/28 01:09:38;;;;;;;;;;;;;;;15.01;98.50;101892.84;5033440;28;20011;-44
2022/08/28 01:12:05;;;;;;;;;;;;;;;14.93;100.00;101888.28;5037433;28;19923;-43
2022/08/28 01:14:32;;;;;;;;;;;;;;;14.95;99.99;101896.19;5033563;28;19956;-43
2022/08/28 01:16:57;;;;;;;;;;;;;;;14.89;100.00;101895.84;5033146;28;19921;-42
2022/08/28 01:19:31;;;;;;;;;;;;;;;14.88;100.00;101896.00;5035874;28;19921;-43
2022/08/28 01:22:02;;;;;;;;;;;;;;;14.90;99.80;101896.66;5037174;28;20440;-43
2022/08/28 01:24:27;;;;;;;;;;;;;;;14.90;100.00;101893.97;5036243;28;19913;-45
2022/08/28 01:26:52;;;;;;;;;;;;;;;14.89;100.00;101895.84;5037045;28;19935;-47
2022/08/28 01:29:19;;;;;;;;;;;;;;;14.85;100.00;101899.00;5037690;28;19913;-42
2022/08/28 01:31:44;;;;;;;;;;;;;;;14.84;100.00;101894.66;5036248;28;19917;-47
2022/08/28 01:34:11;;;;;;;;;;;;;;;14.82;100.00;101902.06;5036290;28;19924;-47
2022/08/28 01:36:37;;;;;;;;;;;;;;;14.82;100.00;101899.38;5034917;28;20034;-45
2022/08/28 01:39:16;;;;;;;;;;;;;;;14.77;100.00;101894.47;5036442;28;19936;-44
2022/08/28 01:41:44;;;;;;;;;;;;;;;14.73;99.37;101901.16;5036479;28;20242;-44
2022/08/28 01:44:10;;;;;;;;;;;;;;;14.71;100.00;101903.16;5036711;28;19909;-47
2022/08/28 01:46:35;;;;;;;;;;;;;;;14.67;100.00;101902.66;5035892;28;20330;-46
2022/08/28 01:49:00;;;;;;;;;;;;;;;14.60;100.00;101903.50;5036580;28;19916;-48
2022/08/28 01:51:25;;;;;;;;;;;;;;;14.51;100.00;101906.09;5035418;28;19958;-43
2022/08/28 01:53:51;;;;;;;;;;;;;;;14.47;100.00;101906.56;5036089;28;20330;-44
2022/08/28 01:56:17;;;;;;;;;;;;;;;14.46;100.00;101913.81;5036240;28;19940;-43
2022/08/28 01:58:42;;;;;;;;;;;;;;;14.47;100.00;101909.25;5030638;28;20000;-44
2022/08/28 02:01:11;;;;;;;;;;;;;;;14.48;100.00;101905.59;5033080;28;20393;-44
2022/08/28 02:03:36;;;;;;;;;;;;;;;14.48;100.00;101906.41;5036572;28;19912;-43
2022/08/28 02:06:02;;;;;;;;;;;;;;;14.44;100.00;101905.03;4998037;28;1121290;-43
2022/08/28 02:08:27;;;;;;;;;;;;;;;14.41;100.00;101904.53;5035932;28;20003;-48
2022/08/28 02:10:52;;;;;;;;;;;;;;;14.42;100.00;101917.78;5036167;28;19920;-46
2022/08/28 02:13:17;;;;;;;;;;;;;;;14.43;100.00;101908.75;5037175;28;20761;-44
2022/08/28 02:15:43;;;;;;;;;;;;;;;14.43;100.00;101919.50;5037034;28;19959;-44
2022/08/28 02:18:08;;;;;;;;;;;;;;;14.39;100.00;101912.75;5036696;28;19916;-47
2022/08/28 02:20:34;;;;;;;;;;;;;;;14.39;100.00;101923.50;5036681;28;19923;-44
2022/08/28 02:22:59;;;;;;;;;;;;;;;14.40;100.00;101918.97;5037740;28;19912;-43
2022/08/28 02:25:25;;;;;;;;;;;;;;;14.40;100.00;101924.34;5035676;28;19959;-45
2022/08/28 02:27:51;;;;;;;;;;;;;;;14.36;100.00;101923.84;5036844;28;19905;-45
2022/08/28 02:30:16;;;;;;;;;;;;;;;14.33;100.00;101924.16;5036424;28;20086;-44
2022/08/28 02:32:42;;;;;;;;;;;;;;;14.27;100.00;101922.91;5030523;28;19917;-46
2022/08/28 02:35:08;;;;;;;;;;;;;;;14.34;100.00;101923.13;5035909;28;19951;-46
2022/08/28 02:37:34;;;;;;;;;;;;;;;14.34;100.00;101926.69;5036163;28;19966;-44
2022/08/28 02:39:59;;;;;;;;;;;;;;;14.35;100.00;101922.97;5036438;28;19912;-43
2022/08/28 02:42:25;;;;;;;;;;;;;;;14.36;100.00;101934.59;5035893;28;20060;-46
2022/08/28 02:44:50;;;;;;;;;;;;;;;14.34;100.00;101926.69;5036276;28;19913;-45
2022/08/28 02:47:15;;;;;;;;;;;;;;;14.32;100.00;101928.69;5034679;28;19919;-44
2022/08/28 02:49:41;;;;;;;;;;;;;;;14.29;100.00;101923.63;5035833;28;19913;-44
2022/08/28 02:52:06;;;;;;;;;;;;;;;14.23;100.00;101926.09;5035323;28;19925;-45
2022/08/28 02:54:32;;;;;;;;;;;;;;;14.18;100.00;101921.19;5035867;28;20359;-47
2022/08/28 02:56:58;;;;;;;;;;;;;;;14.17;100.00;101927.56;5036410;28;19912;-44
2022/08/28 02:59:23;;;;;;;;;;;;;;;14.16;100.00;101923.19;5035785;28;19917;-44
2022/08/28 03:01:49;;;;;;;;;;;;;;;14.15;100.00;101924.19;5036082;28;20271;-45
2022/08/28 03:04:14;;;;;;;;;;;;;;;14.14;100.00;101922.53;5035749;28;19920;-45
2022/08/28 03:06:39;;;;;;;;;;;;;;;14.10;100.00;101923.81;5035887;28;20283;-45
2022/08/28 03:09:05;;;;;;;;;;;;;;;14.06;100.00;101922.47;5026150;28;19909;-45
2022/08/28 03:11:30;;;;;;;;;;;;;;;14.02;100.00;101926.44;5018869;28;19917;-44
2022/08/28 03:13:55;;;;;;;;;;;;;;;13.97;100.00;101926.94;5036531;28;20032;-43
2022/08/28 03:16:20;;;;;;;;;;;;;;;13.93;100.00;101928.25;5035567;28;20381;-46
2022/08/28 03:18:46;;;;;;;;;;;;;;;13.87;100.00;101921.66;5036300;28;19957;-47
2022/08/28 03:21:11;;;;;;;;;;;;;;;13.83;100.00;101924.81;5035261;28;20307;-47
2022/08/28 03:23:37;;;;;;;;;;;;;;;13.83;100.00;101922.13;5033683;28;19986;-46
2022/08/28 03:26:05;;;;;;;;;;;;;;;13.80;100.00;101925.97;5037077;28;20054;-46
2022/08/28 03:28:32;;;;;;;;;;;;;;;13.72;100.00;101932.09;5036825;28;19919;-47
2022/08/28 03:30:57;;;;;;;;;;;;;;;13.70;100.00;101935.97;5035022;28;20074;-46
2022/08/28 03:33:22;;;;;;;;;;;;;;;13.67;100.00;101931.72;5036081;28;20043;-45
2022/08/28 03:35:48;;;;;;;;;;;;;;;13.65;100.00;101933.72;5035612;28;20422;-41
2022/08/28 03:38:15;;;;;;;;;;;;;;;13.64;100.00;101941.94;5036164;28;19920;-47
2022/08/28 03:40:42;;;;;;;;;;;;;;;13.62;100.00;101939.41;5034444;28;19912;-44
2022/08/28 03:43:11;;;;;;;;;;;;;;;13.62;100.00;101939.41;5034404;28;20008;-43
2022/08/28 03:45:37;;;;;;;;;;;;;;;13.62;100.00;101947.47;5035159;28;19912;-47
2022/08/28 03:48:03;;;;;;;;;;;;;;;13.61;100.00;101945.75;5035604;28;19912;-44
2022/08/28 03:50:28;;;;;;;;;;;;;;;13.61;100.00;101956.50;5034384;28;19999;-44
2022/08/28 03:52:54;;;;;;;;;;;;;;;13.55;100.00;101949.91;5035009;28;20004;-47
2022/08/28 03:55:19;;;;;;;;;;;;;;;13.55;100.00;101946.41;5034222;28;20124;-43
2022/08/28 03:57:44;;;;;;;;;;;;;;;13.55;100.00;101944.53;5032316;28;20178;-47
2022/08/28 04:00:11;;;;;;;;;;;;;;;13.54;100.00;101944.69;5034851;28;19920;-43
2022/08/28 04:02:36;;;;;;;;;;;;;;;13.57;100.00;101952.44;5034945;28;20383;-44
2022/08/28 04:05:01;;;;;;;;;;;;;;;13.58;100.00;101956.84;5035154;28;20007;-44
2022/08/28 04:07:26;;;;;;;;;;;;;;;13.56;100.00;101961.47;5034317;28;19919;-43
2022/08/28 04:09:52;;;;;;;;;;;;;;;13.56;100.00;101953.44;5033628;28;19916;-43
2022/08/28 04:12:17;;;;;;;;;;;;;;;13.53;100.00;101954.59;5035548;28;19924;-47
2022/08/28 04:14:42;;;;;;;;;;;;;;;13.54;100.00;101953.63;5029951;28;19917;-43
2022/08/28 04:17:08;;;;;;;;;;;;;;;13.52;100.00;101954.75;5035049;28;19931;-47
2022/08/28 04:19:34;;;;;;;;;;;;;;;13.48;100.00;101950.69;5023447;28;19999;-47
2022/08/28 04:22:00;;;;;;;;;;;;;;;13.41;100.00;101950.47;5034809;28;19923;-46
2022/08/28 04:24:25;;;;;;;;;;;;;;;13.35;100.00;101946.53;5034087;28;20338;-44
2022/08/28 04:26:50;;;;;;;;;;;;;;;13.31;100.00;101953.19;5035617;28;20374;-48
2022/08/28 04:29:15;;;;;;;;;;;;;;;13.30;100.00;101954.16;5035526;28;19912;-46
2022/08/28 04:31:41;;;;;;;;;;;;;;;13.28;100.00;101948.09;5027876;28;19923;-48
2022/08/28 04:34:08;;;;;;;;;;;;;;;13.25;100.00;101957.31;5019962;28;20275;-46
2022/08/28 04:36:33;;;;;;;;;;;;;;;13.24;100.00;101957.47;5034621;28;20299;-42
2022/08/28 04:38:59;;;;;;;;;;;;;;;13.24;100.00;101970.88;5034917;28;20418;-46
2022/08/28 04:41:24;;;;;;;;;;;;;;;13.23;100.00;101970.00;5034541;28;20337;-46
2022/08/28 04:43:51;;;;;;;;;;;;;;;13.19;100.00;101965.13;5035564;28;20204;-44
2022/08/28 04:46:16;;;;;;;;;;;;;;;13.13;100.00;101968.41;5034826;28;19928;-43
2022/08/28 04:48:42;;;;;;;;;;;;;;;13.11;100.00;101973.06;5033862;28;20355;-47
2022/08/28 04:51:08;;;;;;;;;;;;;;;13.06;100.00;101969.00;5034252;28;19924;-43
2022/08/28 04:53:34;;;;;;;;;;;;;;;13.05;100.00;101972.69;5034636;28;19916;-45
2022/08/28 04:56:01;;;;;;;;;;;;;;;13.05;100.00;101972.69;5038862;28;20272;-45
2022/08/28 04:58:27;;;;;;;;;;;;;;;13.03;100.00;101980.03;5038255;28;19919;-44
2022/08/28 05:00:53;;;;;;;;;;;;;;;13.03;100.00;101974.69;5036790;28;19912;-42
2022/08/28 05:03:18;;;;;;;;;;;;;;;13.02;100.00;101982.88;5038933;28;19913;-42
2022/08/28 05:05:48;;;;;;;;;;;;;;;13.01;100.00;101973.94;5037484;28;19925;-43
2022/08/28 05:08:14;;;;;;;;;;;;;;;13.02;100.00;101978.34;5035537;28;19923;-43
2022/08/28 05:10:40;;;;;;;;;;;;;;;13.00;100.00;101977.66;5018017;28;19916;-45
2022/08/28 05:13:07;;;;;;;;;;;;;;;13.02;100.00;101983.69;5032180;28;19917;-47
2022/08/28 05:15:32;;;;;;;;;;;;;;;13.02;100.00;101983.69;5036126;28;20542;-44
2022/08/28 05:17:58;;;;;;;;;;;;;;;13.04;100.00;101987.06;5038346;28;19920;-42
2022/08/28 05:20:23;;;;;;;;;;;;;;;13.06;100.00;101994.97;5038637;28;19928;-43
2022/08/28 05:22:48;;;;;;;;;;;;;;;13.07;100.00;101996.66;5038511;28;19932;-42
2022/08/28 05:25:13;;;;;;;;;;;;;;;13.07;100.00;102008.22;5037496;28;19913;-43
2022/08/28 05:27:39;;;;;;;;;;;;;;;13.09;100.00;102002.72;5038452;28;20241;-46
2022/08/28 05:30:05;;;;;;;;;;;;;;;13.12;100.00;102002.44;5037894;28;19944;-44
2022/08/28 05:32:30;;;;;;;;;;;;;;;13.14;100.00;102008.47;5038526;28;19912;-42
2022/08/28 05:34:55;;;;;;;;;;;;;;;13.15;100.00;102003.97;5038040;28;19931;-46
2022/08/28 05:37:21;;;;;;;;;;;;;;;13.15;100.00;102004.81;5037625;28;20000;-41
2022/08/28 05:39:46;;;;;;;;;;;;;;;13.19;100.00;102006.19;5036894;28;19935;-42
2022/08/28 05:42:11;;;;;;;;;;;;;;;13.21;100.00;102011.41;5037861;28;19978;-43
2022/08/28 05:44:36;;;;;;;;;;;;;;;13.24;100.00;102011.13;5025061;28;20031;-43
2022/08/28 05:47:02;;;;;;;;;;;;;;;13.27;100.00;102012.66;5034102;28;19912;-44
2022/08/28 05:49:27;;;;;;;;;;;;;;;13.29;100.00;102008.84;5036787;28;19905;-48
2022/08/28 05:51:52;;;;;;;;;;;;;;;13.33;100.00;102012.91;5017906;28;19941;-44
2022/08/28 05:54:17;;;;;;;;;;;;;;;13.38;100.00;102015.16;5017266;28;19928;-43
2022/08/28 05:56:44;;;;;;;;;;;;;;;13.40;100.00;102007.78;5016778;28;19915;-45
2022/08/28 05:59:10;;;;;;;;;;;;;;;13.39;100.00;102012.31;5016943;28;19991;-42
2022/08/28 06:01:38;;;;;;;;;;;;;;;13.41;100.00;102009.50;5016952;28;19916;-44
2022/08/28 06:04:09;;;;;;;;;;;;;;;13.42;100.00;102011.16;5017616;28;19917;-44
2022/08/28 06:06:38;;;;;;;;;;;;;;;13.45;100.00;102021.59;5016126;28;19909;-46
2022/08/28 06:09:05;;;;;;;;;;;;;;;13.47;100.00;102022.28;5017219;28;19909;-43
2022/08/28 06:11:30;;;;;;;;;;;;;;;13.48;100.00;102021.31;5018135;28;20518;-44
2022/08/28 06:13:57;;;;;;;;;;;;;;;13.52;100.00;102028.03;5018064;28;20196;-43
2022/08/28 06:16:22;;;;;;;;;;;;;;;13.56;100.00;102031.28;5015982;28;19937;-43
2022/08/28 06:18:49;;;;;;;;;;;;;;;13.59;100.00;102031.84;5016113;28;19912;-43
2022/08/28 06:21:14;;;;;;;;;;;;;;;13.64;100.00;102030.53;5016932;28;20226;-42
2022/08/28 06:23:40;;;;;;;;;;;;;;;13.69;100.00;102031.75;5016394;28;20003;-45
2022/08/28 06:26:05;;;;;;;;;;;;;;;13.74;100.00;102031.28;5017227;28;20402;-44
2022/08/28 06:28:31;;;;;;;;;;;;;;;13.80;100.00;102038.75;5017739;28;19909;-41
2022/08/28 06:30:57;;;;;;;;;;;;;;;13.87;100.00;102030.94;5016094;28;19996;-45
2022/08/28 06:33:22;;;;;;;;;;;;;;;13.93;100.00;102036.53;5017320;28;19913;-46
2022/08/28 06:35:49;;;;;;;;;;;;;;;13.96;100.00;102030.81;5016169;28;20410;-45
2022/08/28 06:38:15;;;;;;;;;;;;;;;14.02;100.00;102034.75;5016007;28;19909;-44
2022/08/28 06:40:42;;;;;;;;;;;;;;;14.12;100.00;102037.34;5017179;28;19905;-47
2022/08/28 06:43:08;;;;;;;;;;;;;;;14.19;100.00;102035.75;5017015;28;20004;-42
2022/08/28 06:45:34;;;;;;;;;;;;;;;14.27;100.00;102041.16;5016378;28;19920;-45
2022/08/28 06:47:59;;;;;;;;;;;;;;;14.34;100.00;102044.91;5016927;28;20314;-47
2022/08/28 06:50:24;;;;;;;;;;;;;;;14.41;100.00;102041.59;5015971;28;20232;-44
2022/08/28 06:52:50;;;;;;;;;;;;;;;14.53;100.00;102045.72;5016151;28;20375;-43
2022/08/28 06:55:15;;;;;;;;;;;;;;;14.62;100.00;102049.34;5015352;28;19909;-43
2022/08/28 06:57:40;;;;;;;;;;;;;;;14.76;100.00;102047.91;5015651;28;20316;-45
2022/08/28 07:00:06;;;;;;;;;;;;;;;14.92;100.00;102048.84;5023696;28;19924;-43
2022/08/28 07:02:32;;;;;;;;;;;;;;;15.06;100.00;102047.38;5035290;28;20036;-44
2022/08/28 07:04:57;;;;;;;;;;;;;;;15.20;100.00;102045.94;5035307;28;19987;-43
2022/08/28 07:07:22;;;;;;;;;;;;;;;15.34;100.00;102046.31;5035822;28;20404;-44
2022/08/28 07:09:47;;;;;;;;;;;;;;;15.47;100.00;102047.53;5020310;28;20323;-47
2022/08/28 07:12:13;;;;;;;;;;;;;;;15.61;100.00;102051.47;5014316;28;20020;-46
2022/08/28 07:14:38;;;;;;;;;;;;;;;15.72;100.00;102046.78;5025685;28;19913;-44
2022/08/28 07:17:06;;;;;;;;;;;;;;;15.89;100.00;102053.06;5035118;28;20212;-43
2022/08/28 07:19:31;;;;;;;;;;;;;;;16.07;100.00;102061.81;5035232;28;19908;-44
2022/08/28 07:21:57;;;;;;;;;;;;;;;16.26;100.00;102052.56;5028111;28;19916;-44
2022/08/28 07:24:22;;;;;;;;;;;;;;;16.41;100.00;102056.25;5015438;28;19971;-44
2022/08/28 07:26:48;;;;;;;;;;;;;;;16.58;100.00;102057.09;5016120;28;19913;-46
2022/08/28 07:29:13;;;;;;;;;;;;;;;16.79;100.00;102056.53;5016121;28;19913;-44
2022/08/28 07:31:43;;;;;;;;;;;;;;;16.99;100.00;102063.41;5032005;28;20004;-43
2022/08/28 07:34:10;;;;;;;;;;;;;;;17.15;100.00;102061.50;5034900;28;19995;-44
2022/08/28 07:36:35;;;;;;;;;;;;;;;17.28;99.54;102062.81;5034991;28;19970;-44
2022/08/28 07:39:00;;;;;;;;;;;;;;;17.40;99.75;102068.66;5033704;28;19913;-44
2022/08/28 07:41:27;;;;;;;;;;;;;;;17.55;100.00;102063.34;5034443;28;19912;-43
2022/08/28 07:46:36;;;;;;;;;;;;;;;17.76;94.47;102073.53;5032945;28;19967;-44
2022/08/28 07:49:02;;;;;;;;;;;;;;;17.84;95.22;102071.59;5033968;28;19967;-43
2022/08/28 07:51:28;;;;;;;;;;;;;;;17.97;95.25;102068.31;5019711;28;19928;-44
2022/08/28 07:53:56;;;;;;;;;;;;;;;18.05;95.35;102073.66;5057436;28;20407;-44
2022/08/28 07:56:21;;;;;;;;;;;;;;;18.19;92.42;102071.19;5026819;28;19955;-45
2022/08/28 07:58:47;;;;;;;;;;;;;;;18.34;94.34;102073.97;5037666;28;19956;-48
2022/08/28 08:01:12;;;;;;;;;;;;;;;18.51;92.01;102075.47;5025071;28;19916;-43
2022/08/28 08:03:37;;;;;;;;;;;;;;;18.49;90.87;102076.69;5032294;28;20011;-44
2022/08/28 08:06:04;;;;;;;;;;;;;;;18.53;90.71;102084.25;5033954;28;19952;-44
2022/08/28 08:08:30;;;;;;;;;;;;;;;18.80;89.67;102087.38;5034051;28;20499;-44
2022/08/28 08:11:00;;;;;;;;;;;;;;;19.08;88.59;102092.19;5034943;28;19978;-44
2022/08/28 08:13:26;;;;;;;;;;;;;;;19.26;84.70;102091.78;5018679;28;19917;-45
2022/08/28 08:15:51;;;;;;;;;;;;;;;19.27;83.76;102091.59;5029664;28;20394;-44
2022/08/28 08:18:17;;;;;;;;;;;;;;;19.27;84.63;102097.03;5026161;28;19912;-45
2022/08/28 08:20:42;;;;;;;;;;;;;;;19.37;85.39;102097.56;5034855;28;20039;-44
2022/08/28 08:23:07;;;;;;;;;;;;;;;19.34;84.69;102094.41;5035739;28;20479;-46
2022/08/28 08:25:32;;;;;;;;;;;;;;;19.27;85.35;102090.78;5034325;28;20252;-44
2022/08/28 08:27:57;;;;;;;;;;;;;;;19.24;81.43;102093.84;5034385;28;20200;-43
2022/08/28 08:30:22;;;;;;;;;;;;;;;19.37;84.99;102092.16;5025304;28;20053;-43
2022/08/28 08:32:49;;;;;;;;;;;;;;;19.45;82.45;102096.66;5025321;28;20026;-43
2022/08/28 08:35:16;;;;;;;;;;;;;;;19.59;82.35;102096.81;5038566;28;19927;-44
2022/08/28 08:37:41;;;;;;;;;;;;;;;19.77;82.09;102090.97;5035440;28;20423;-47
2022/08/28 08:40:07;;;;;;;;;;;;;;;19.64;80.56;102092.47;5029191;28;19947;-43
2022/08/28 08:42:33;;;;;;;;;;;;;;;19.78;82.88;102095.38;5039488;28;19913;-44
2022/08/28 08:44:59;;;;;;;;;;;;;;;20.09;81.43;102095.06;5038895;28;20023;-45
2022/08/28 08:47:43;;;;;;;;;;;;;;;20.48;79.60;102104.59;5037618;28;19913;-48
2022/08/28 08:50:15;;;;;;;;;;;;;;;20.76;74.97;102093.78;5023118;28;20409;-43
2022/08/28 08:52:59;;;;;;;;;;;;;;;20.84;79.15;102099.06;5034097;28;20293;-47
2022/08/28 08:55:26;;;;;;;;;;;;;;;20.81;73.56;102096.75;5038905;28;19942;-48
2022/08/28 08:57:58;;;;;;;;;;;;;;;20.60;75.28;102097.56;5040061;28;19997;-45
2022/08/28 09:00:24;;;;;;;;;;;;;;;20.68;76.37;102094.75;5038669;28;19912;-45
2022/08/28 09:02:54;;;;;;;;;;;;;;;20.63;71.92;102090.97;5029474;28;19916;-45
2022/08/28 09:05:22;;;;;;;;;;;;;;;20.69;75.65;102084.75;5030565;28;19956;-44
2022/08/28 09:07:55;;;;;;;;;;;;;;;20.73;69.84;102082.47;5017266;28;19913;-46
2022/08/28 09:10:21;;;;;;;;;;;;;;;20.52;72.51;102080.59;5019415;28;19920;-46
2022/08/28 09:12:55;;;;;;;;;;;;;;;20.39;72.10;102086.78;5019656;28;19913;-43
2022/08/28 09:15:26;;;;;;;;;;;;;;;20.34;73.88;102090.06;5018783;28;19908;-44
2022/08/28 09:17:53;;;;;;;;;;;;;;;20.32;73.05;102094.88;5018308;28;19936;-45
2022/08/28 09:20:21;;;;;;;;;;;;;;;20.42;72.76;102089.94;5018818;28;20393;-45
2022/08/28 09:22:47;;;;;;;;;;;;;;;20.59;73.78;102100.53;5017475;28;20399;-44
2022/08/28 09:25:32;;;;;;;;;;;;;;;20.92;74.81;102099.94;5019050;28;20184;-44
2022/08/28 09:28:04;;;;;;;;;;;;;;;21.44;72.02;102101.25;5019378;28;19917;-45
2022/08/28 09:30:30;;;;;;;;;;;;;;;21.82;68.99;102097.22;5018949;28;20467;-42
2022/08/28 09:32:59;;;;;;;;;;;;;;;22.09;69.96;102095.38;5018484;28;20015;-45
2022/08/28 09:35:32;;;;;;;;;;;;;;;22.39;70.22;102097.75;5018619;28;19960;-48
2022/08/28 09:38:17;;;;;;;;;;;;;;;22.34;67.92;102092.94;5018397;28;19955;-43
2022/08/28 09:43:26;;;;;;;;;;;;;;;21.68;69.38;102094.47;5019656;28;19920;-44
2022/08/28 09:46:04;;;;;;;;;;;;;;;21.36;68.41;102093.28;5018305;28;20357;-43
2022/08/28 09:48:31;;;;;;;;;;;;;;;21.18;70.21;102097.38;5019534;28;19994;-43
2022/08/28 09:51:09;;;;;;;;;;;;;;;21.30;72.01;102097.66;5017370;28;19909;-45
2022/08/28 09:53:36;;;;;;;;;;;;;;;21.52;66.36;102094.81;5017327;28;19971;-46
2022/08/28 09:56:09;;;;;;;;;;;;;;;21.37;70.79;102087.63;5017599;28;20344;-47
2022/08/28 09:58:39;;;;;;;;;;;;;;;21.42;69.62;102089.75;5018566;28;19934;-47
2022/08/28 10:01:24;;;;;;;;;;;;;;;21.13;65.30;102088.13;5028773;28;19917;-44
2022/08/28 10:03:57;;;;;;;;;;;;;;;21.17;70.77;102078.56;5038516;28;19920;-44
2022/08/28 10:06:27;;;;;;;;;;;;;;;21.27;69.41;102081.75;5031771;28;20200;-45
2022/08/28 10:08:53;;;;;;;;;;;;;;;21.24;65.75;102091.13;5020165;28;19917;-43
2022/08/28 10:11:28;;;;;;;;;;;;;;;21.15;68.47;102088.78;5027178;28;19955;-46
2022/08/28 10:14:03;;;;;;;;;;;;;;;21.40;70.33;102091.81;5019388;28;20081;-44
2022/08/28 10:16:36;;;;;;;;;;;;;;;21.81;65.42;102085.50;5026572;28;19913;-43
2022/08/28 10:19:08;;;;;;;;;;;;;;;22.18;67.38;102094.13;5027627;28;20445;-45
2022/08/28 10:21:34;;;;;;;;;;;;;;;22.62;65.14;102089.13;5024662;28;19916;-48
2022/08/28 10:24:12;;;;;;;;;;;;;;;22.59;58.73;102081.38;5036165;28;19904;-48
2022/08/28 10:26:43;;;;;;;;;;;;;;;22.11;62.92;102090.56;5036897;28;19912;-48
2022/08/28 10:29:31;;;;;;;;;;;;;;;21.96;63.84;102094.31;5037852;28;19916;-45
2022/08/28 10:32:07;;;;;;;;;;;;;;;22.20;63.58;102086.63;5026120;28;19932;-45
2022/08/28 10:34:40;;;;;;;;;;;;;;;22.63;60.59;102090.81;5017571;28;19916;-47
2022/08/28 10:37:12;;;;;;;;;;;;;;;22.51;56.99;102085.19;5015758;28;20000;-47
2022/08/28 10:39:44;;;;;;;;;;;;;;;22.35;60.59;102080.97;5016877;28;20083;-44
2022/08/28 10:42:09;;;;;;;;;;;;;;;22.13;62.22;102089.31;5017043;28;20281;-47
2022/08/28 10:44:43;;;;;;;;;;;;;;;22.15;62.75;102089.13;5017662;28;19916;-46
2022/08/28 10:47:10;;;;;;;;;;;;;;;22.17;61.04;102087.03;5021758;28;19912;-48
2022/08/28 10:49:40;;;;;;;;;;;;;;;21.85;60.00;102078.59;5036086;28;19909;-44
2022/08/28 10:52:18;;;;;;;;;;;;;;;21.59;61.63;102085.66;5015934;28;20288;-46
2022/08/28 10:55:06;;;;;;;;;;;;;;;21.47;62.38;102092.72;5017779;28;19913;-44
2022/08/28 10:57:43;;;;;;;;;;;;;;;21.63;61.05;102086.06;5017341;28;20453;-48
2022/08/28 11:00:13;;;;;;;;;;;;;;;22.25;58.63;102086.81;5016725;28;20283;-47
2022/08/28 11:02:44;;;;;;;;;;;;;;;22.81;59.71;102087.41;5031415;28;19920;-43
2022/08/28 11:05:10;;;;;;;;;;;;;;;23.48;53.76;102084.53;5016612;28;19917;-48
2022/08/28 11:07:45;;;;;;;;;;;;;;;23.82;54.02;102083.31;5015748;28;20347;-46
2022/08/28 11:10:15;;;;;;;;;;;;;;;24.12;51.49;102082.69;5016747;28;20001;-47
2022/08/28 11:12:42;;;;;;;;;;;;;;;23.80;47.37;102074.47;5016873;28;19921;-44
2022/08/28 11:15:25;;;;;;;;;;;;;;;23.73;52.09;102079.97;5030941;28;20257;-44
2022/08/28 11:17:51;;;;;;;;;;;;;;;23.77;54.74;102083.09;5016903;28;20386;-44
2022/08/28 11:20:21;;;;;;;;;;;;;;;23.88;47.17;102087.03;5018375;28;19909;-45
2022/08/28 11:22:58;;;;;;;;;;;;;;;23.54;50.93;102083.63;5035116;28;19996;-42
2022/08/28 11:25:27;;;;;;;;;;;;;;;23.37;52.66;102083.28;5036649;28;20391;-44
2022/08/28 11:28:13;;;;;;;;;;;;;;;23.45;51.23;102093.97;5036596;28;19909;-43
2022/08/28 11:30:39;;;;;;;;;;;;;;;23.38;53.28;102088.53;5036446;28;19913;-45
2022/08/28 11:33:24;;;;;;;;;;;;;;;23.52;52.64;102083.03;5036526;28;20002;-43
2022/08/28 11:35:50;;;;;;;;;;;;;;;23.89;53.20;102081.38;5036536;28;19912;-43
2022/08/28 11:38:34;;;;;;;;;;;;;;;24.27;52.78;102082.34;5036159;28;19986;-45
2022/08/28 11:41:10;;;;;;;;;;;;;;;24.64;48.69;102087.94;5036566;28;19915;-42
2022/08/28 11:43:36;;;;;;;;;;;;;;;24.85;48.01;102078.50;5036075;28;19908;-47
2022/08/28 11:46:01;;;;;;;;;;;;;;;25.04;46.38;102087.53;5035952;28;19908;-46
2022/08/28 11:48:36;;;;;;;;;;;;;;;25.18;46.31;102089.03;5036488;28;19908;-43
2022/08/28 11:51:16;;;;;;;;;;;;;;;24.99;46.48;102090.09;5036132;28;19909;-45
2022/08/28 11:54:00;;;;;;;;;;;;;;;24.40;47.36;102095.88;5035785;28;19915;-47
2022/08/28 11:56:50;;;;;;;;;;;;;;;24.12;48.94;102091.72;5036547;28;19958;-45
2022/08/28 11:59:15;;;;;;;;;;;;;;;24.10;49.75;102084.78;5036776;28;20363;-49
2022/08/28 12:01:40;;;;;;;;;;;;;;;24.39;50.07;102091.50;5019938;28;19927;-48
2022/08/28 12:04:06;;;;;;;;;;;;;;;24.77;52.16;102088.63;5038889;28;20379;-47
2022/08/28 12:06:43;;;;;;;;;;;;;;;25.15;47.96;102094.94;5032334;28;19909;-44
2022/08/28 12:09:08;;;;;;;;;;;;;;;25.50;45.05;102091.59;5019523;28;19917;-47
2022/08/28 12:11:40;;;;;;;;;;;;;;;25.58;48.55;102082.25;5020510;28;20186;-46
2022/08/28 12:14:07;;;;;;;;;;;;;;;25.54;43.99;102087.34;5020690;28;19915;-45
2022/08/28 12:16:50;;;;;;;;;;;;;;;25.31;47.12;102088.91;5019947;28;20550;-45
2022/08/28 12:19:25;;;;;;;;;;;;;;;25.00;48.95;102086.28;5033166;28;20011;-44
2022/08/28 12:21:51;;;;;;;;;;;;;;;24.64;46.01;102093.41;5039899;28;20383;-48
2022/08/28 12:24:20;;;;;;;;;;;;;;;24.23;46.94;102092.88;5039897;28;19936;-44
2022/08/28 12:26:49;;;;;;;;;;;;;;;24.02;46.34;102080.44;5038855;28;20000;-45
2022/08/28 12:29:20;;;;;;;;;;;;;;;24.23;47.78;102076.50;5040357;28;20060;-43
2022/08/28 12:32:10;;;;;;;;;;;;;;;24.38;43.84;102078.91;5032030;28;19913;-47
2022/08/28 12:35:03;;;;;;;;;;;;;;;24.69;44.71;102074.44;5020340;28;19999;-47
2022/08/28 12:37:31;;;;;;;;;;;;;;;25.16;44.22;102071.19;5019442;28;19954;-45
2022/08/28 12:40:00;;;;;;;;;;;;;;;25.38;45.85;102075.13;5020217;28;19916;-45